Time;durP1;ratioP1;P1;durP2;ratioP2;P2;SDS_P1;SDS_P2;PMS_P1;PMS_P2;Temp;Humidity;BMP_temperature;BMP_pressure;BME280_temperature;BME280_humidity;BME280_pressure;Samples;Min_cycle;Max_cycle;Signal;HPM_P1;HPM_P2
2022/05/11 00:00:45;;;;;;;;;;;;;;;17.95;45.91;99859.53;4450353;32;33216;-65
2022/05/11 00:03:13;;;;;;;;;;;;;;;18.01;45.58;99852.59;4448990;32;34037;-65
2022/05/11 00:05:40;;;;;;;;;;;;;;;18.04;45.65;99853.16;4445541;32;34698;-65
2022/05/11 00:08:08;;;;;;;;;;;;;;;17.92;46.09;99849.00;4447892;32;34124;-65
2022/05/11 00:10:36;;;;;;;;;;;;;;;17.89;46.12;99847.47;4450322;32;32179;-65
2022/05/11 00:13:04;;;;;;;;;;;;;;;17.98;45.71;99851.06;4445471;32;35250;-67
2022/05/11 00:15:31;;;;;;;;;;;;;;;17.97;45.75;99853.94;4448072;32;34921;-66
2022/05/11 00:17:59;;;;;;;;;;;;;;;17.55;46.71;99850.03;4449209;32;35226;-64
2022/05/11 00:20:27;;;;;;;;;;;;;;;17.72;46.21;99852.88;4450184;32;32075;-63
2022/05/11 00:22:55;;;;;;;;;;;;;;;17.67;46.59;99847.94;4442625;32;34243;-64
2022/05/11 00:25:25;;;;;;;;;;;;;;;17.50;46.84;99846.97;4451551;32;36772;-67
2022/05/11 00:27:53;;;;;;;;;;;;;;;17.42;46.85;99855.00;4450123;32;34068;-67
2022/05/11 00:30:21;;;;;;;;;;;;;;;17.12;47.83;99849.00;4444153;32;33363;-65
2022/05/11 00:32:53;;;;;;;;;;;;;;;17.22;47.40;99849.78;4447052;32;35443;-65
2022/05/11 00:35:20;;;;;;;;;;;;;;;17.18;47.37;99840.28;4450480;32;34215;-67
2022/05/11 00:37:48;;;;;;;;;;;;;;;17.22;47.20;99843.50;4449291;32;34249;-64
2022/05/11 00:40:17;;;;;;;;;;;;;;;17.20;47.30;99845.50;4450225;32;34406;-65
2022/05/11 00:42:44;;;;;;;;;;;;;;;17.02;47.84;99837.41;4448936;32;34310;-65
2022/05/11 00:45:12;;;;;;;;;;;;;;;17.20;47.26;99842.81;4449808;32;33093;-63
2022/05/11 00:47:41;;;;;;;;;;;;;;;17.18;47.39;99842.13;4449390;32;34295;-65
2022/05/11 00:50:13;;;;;;;;;;;;;;;17.00;47.60;99839.41;4450089;32;33490;-66
2022/05/11 00:52:42;;;;;;;;;;;;;;;17.26;47.05;99844.06;4447797;32;32994;-64
2022/05/11 00:55:15;;;;;;;;;;;;;;;17.33;46.80;99845.12;4447238;32;34631;-64
2022/05/11 00:57:46;;;;;;;;;;;;;;;17.15;47.29;99843.28;4446870;32;34068;-63
2022/05/11 01:00:14;;;;;;;;;;;;;;;17.19;47.42;99844.66;4445384;32;32279;-66
2022/05/11 01:02:41;;;;;;;;;;;;;;;17.30;46.99;99851.69;4442931;32;32993;-64
2022/05/11 01:05:10;;;;;;;;;;;;;;;17.08;47.60;99834.09;4449044;32;35589;-65
2022/05/11 01:07:37;;;;;;;;;;;;;;;16.91;48.09;99840.31;4450443;32;32644;-65
2022/05/11 01:10:06;;;;;;;;;;;;;;;16.40;49.30;99842.56;4445276;32;32249;-65
2022/05/11 01:12:39;;;;;;;;;;;;;;;16.69;48.46;99836.16;4445128;32;34964;-65
2022/05/11 01:15:09;;;;;;;;;;;;;;;16.78;48.43;99843.41;4446412;32;33928;-67
2022/05/11 01:17:42;;;;;;;;;;;;;;;16.87;48.19;99847.91;4443640;32;32970;-67
2022/05/11 01:20:17;;;;;;;;;;;;;;;16.92;47.90;99850.16;4447251;32;33847;-66
2022/05/11 01:23:03;;;;;;;;;;;;;;;16.81;48.16;99847.66;4446771;32;33005;-67
2022/05/11 01:25:34;;;;;;;;;;;;;;;16.92;48.36;99844.75;4444707;32;34090;-65
2022/05/11 01:28:04;;;;;;;;;;;;;;;17.13;47.42;99845.28;4442972;32;32817;-67
2022/05/11 01:30:35;;;;;;;;;;;;;;;17.16;47.30;99844.97;4449276;32;32049;-65
2022/05/11 01:33:04;;;;;;;;;;;;;;;16.90;47.74;99839.47;4448138;32;34415;-67
2022/05/11 01:35:45;;;;;;;;;;;;;;;16.98;47.62;99852.22;4443606;32;34269;-67
2022/05/11 01:38:16;;;;;;;;;;;;;;;17.03;47.45;99844.50;4446710;32;34808;-65
2022/05/11 01:40:46;;;;;;;;;;;;;;;16.91;47.76;99851.13;4448061;32;33465;-68
2022/05/11 01:43:21;;;;;;;;;;;;;;;16.70;48.39;99856.81;4447229;32;35388;-66
2022/05/11 01:45:51;;;;;;;;;;;;;;;16.79;48.24;99846.94;4446170;32;34378;-65
2022/05/11 01:48:21;;;;;;;;;;;;;;;16.77;48.39;99849.81;4448720;32;33393;-66
2022/05/11 01:50:50;;;;;;;;;;;;;;;16.77;48.23;99844.41;4443201;32;34370;-66
2022/05/11 01:53:20;;;;;;;;;;;;;;;16.74;48.28;99840.13;4444335;32;35163;-63
2022/05/11 01:55:50;;;;;;;;;;;;;;;16.56;49.01;99850.03;4448460;32;34396;-65
2022/05/11 01:58:20;;;;;;;;;;;;;;;16.56;48.85;99844.62;4449599;32;33319;-64
2022/05/11 02:00:52;;;;;;;;;;;;;;;16.50;49.01;99843.41;4448275;32;33230;-66
2022/05/11 02:03:21;;;;;;;;;;;;;;;16.53;48.96;99842.22;4449884;32;33933;-64
2022/05/11 02:08:39;;;;;;;;;;;;;;;16.48;49.31;99844.56;4449458;32;34588;-64
2022/05/11 02:11:06;;;;;;;;;;;;;;;16.47;49.25;99838.31;4450924;32;34148;-65
2022/05/11 02:13:35;;;;;;;;;;;;;;;16.54;49.05;99839.38;4448076;32;34850;-65
2022/05/11 02:16:04;;;;;;;;;;;;;;;16.70;48.54;99840.59;4436277;32;35505;-65
2022/05/11 02:18:32;;;;;;;;;;;;;;;16.75;48.34;99843.69;4440147;32;34346;-67
2022/05/11 02:21:01;;;;;;;;;;;;;;;16.87;48.06;99853.31;4450275;32;32337;-66
2022/05/11 02:23:29;;;;;;;;;;;;;;;16.82;48.20;99841.25;4447414;32;34410;-66
2022/05/11 02:25:57;;;;;;;;;;;;;;;16.79;48.29;99839.72;4448843;32;35451;-67
2022/05/11 02:28:26;;;;;;;;;;;;;;;16.92;47.86;99836.62;4450108;32;34195;-65
2022/05/11 02:30:56;;;;;;;;;;;;;;;16.81;48.07;99829.59;4445979;32;33238;-67
2022/05/11 02:33:24;;;;;;;;;;;;;;;16.87;47.83;99837.09;4451178;32;32699;-65
2022/05/11 02:35:53;;;;;;;;;;;;;;;16.75;48.11;99838.28;4450125;32;35465;-68
2022/05/11 02:38:22;;;;;;;;;;;;;;;16.68;48.35;99838.03;4448611;32;32908;-67
2022/05/11 02:40:51;;;;;;;;;;;;;;;16.64;48.55;99833.94;4448440;32;33523;-66
2022/05/11 02:43:19;;;;;;;;;;;;;;;16.65;48.60;99830.22;4451062;32;33858;-67
2022/05/11 02:45:48;;;;;;;;;;;;;;;16.69;48.57;99837.03;4448784;32;35390;-67
2022/05/11 02:48:18;;;;;;;;;;;;;;;16.68;48.79;99837.19;4451992;32;34134;-66
2022/05/11 02:50:50;;;;;;;;;;;;;;;16.80;48.70;99837.84;4450506;32;33218;-66
2022/05/11 02:53:19;;;;;;;;;;;;;;;16.93;48.21;99832.91;4450973;32;34449;-66
2022/05/11 02:55:48;;;;;;;;;;;;;;;17.00;47.78;99834.00;4450264;32;33480;-65
2022/05/11 02:58:18;;;;;;;;;;;;;;;16.94;47.94;99837.31;4451709;32;34208;-66
2022/05/11 03:00:49;;;;;;;;;;;;;;;17.12;47.33;99831.94;4445781;32;33737;-65
2022/05/11 03:03:18;;;;;;;;;;;;;;;17.07;47.45;99829.66;4451860;32;33752;-66
2022/05/11 03:05:47;;;;;;;;;;;;;;;16.95;47.67;99825.50;4451044;32;35413;-66
2022/05/11 03:08:16;;;;;;;;;;;;;;;16.95;47.94;99830.91;4444164;32;35323;-67
2022/05/11 03:10:44;;;;;;;;;;;;;;;17.13;47.50;99836.31;4447146;32;32103;-67
2022/05/11 03:13:14;;;;;;;;;;;;;;;17.17;47.27;99838.59;4451544;32;34014;-67
2022/05/11 03:15:43;;;;;;;;;;;;;;;17.21;47.15;99833.72;4448135;32;33963;-67
2022/05/11 03:18:12;;;;;;;;;;;;;;;17.27;46.86;99827.69;4446448;32;33041;-67
2022/05/11 03:20:42;;;;;;;;;;;;;;;17.30;47.11;99837.31;4448349;32;33783;-67
2022/05/11 03:23:11;;;;;;;;;;;;;;;17.40;46.63;99841.66;4451541;32;32970;-67
2022/05/11 03:25:41;;;;;;;;;;;;;;;17.36;46.77;99832.13;4451409;32;33695;-67
2022/05/11 03:28:10;;;;;;;;;;;;;;;17.32;46.77;99830.75;4450735;32;34117;-67
2022/05/11 03:30:39;;;;;;;;;;;;;;;17.38;46.57;99840.94;4446893;32;33136;-68
2022/05/11 03:35:58;;;;;;;;;;;;;;;17.48;46.31;99845.44;4448003;32;33362;-68
2022/05/11 03:38:30;;;;;;;;;;;;;;;17.47;46.38;99850.00;4450603;32;34154;-69
2022/05/11 03:41:06;;;;;;;;;;;;;;;17.48;46.34;99842.72;4450406;32;32008;-68
2022/05/11 03:43:34;;;;;;;;;;;;;;;17.49;46.34;99847.97;4447716;32;33564;-69
2022/05/11 03:46:03;;;;;;;;;;;;;;;17.62;46.13;99852.97;4449496;32;34389;-68
2022/05/11 03:48:32;;;;;;;;;;;;;;;17.62;46.04;99855.69;4450394;32;34167;-67
2022/05/11 03:51:00;;;;;;;;;;;;;;;17.50;46.51;99854.25;4448806;32;32316;-68
2022/05/11 03:53:29;;;;;;;;;;;;;;;17.61;46.09;99864.81;4447373;32;33692;-68
2022/05/11 03:55:58;;;;;;;;;;;;;;;17.63;46.15;99857.41;4448441;32;34566;-68
2022/05/11 03:58:27;;;;;;;;;;;;;;;17.45;46.49;99852.84;4450382;32;34333;-68
2022/05/11 04:00:57;;;;;;;;;;;;;;;17.48;46.61;99857.09;4450570;32;32658;-67
2022/05/11 04:03:25;;;;;;;;;;;;;;;17.36;47.05;99855.63;4450962;32;33968;-68
2022/05/11 04:05:54;;;;;;;;;;;;;;;17.32;47.38;99855.09;4449844;32;35235;-68
2022/05/11 04:08:22;;;;;;;;;;;;;;;17.46;47.12;99859.09;4450340;32;34797;-68
2022/05/11 04:10:51;;;;;;;;;;;;;;;17.57;47.04;99863.44;4448590;32;32985;-68
2022/05/11 04:13:19;;;;;;;;;;;;;;;17.65;46.81;99864.31;4450005;32;33831;-67
2022/05/11 04:15:49;;;;;;;;;;;;;;;17.79;46.66;99868.38;4449603;32;33292;-68
2022/05/11 04:18:18;;;;;;;;;;;;;;;17.88;46.58;99872.84;4448804;32;34295;-68
2022/05/11 04:20:47;;;;;;;;;;;;;;;17.85;46.84;99873.16;4445260;32;33087;-68
2022/05/11 04:23:16;;;;;;;;;;;;;;;17.80;47.12;99875.47;4450597;32;34004;-67
2022/05/11 04:25:46;;;;;;;;;;;;;;;17.89;46.98;99874.53;4448152;32;35365;-68
2022/05/11 04:28:18;;;;;;;;;;;;;;;18.11;46.62;99872.31;4448154;32;32670;-68
2022/05/11 04:30:47;;;;;;;;;;;;;;;18.20;46.63;99879.44;4449071;32;31979;-70
2022/05/11 04:33:16;;;;;;;;;;;;;;;18.35;46.59;99874.28;4449111;32;35011;-70
2022/05/11 04:35:44;;;;;;;;;;;;;;;18.48;46.47;99874.69;4445024;32;34349;-70
2022/05/11 04:38:14;;;;;;;;;;;;;;;18.66;46.05;99874.62;4449828;32;34562;-70
2022/05/11 04:40:43;;;;;;;;;;;;;;;18.82;46.00;99872.00;4447397;32;34301;-70
2022/05/11 04:43:12;;;;;;;;;;;;;;;19.01;45.98;99873.56;4450372;32;34288;-70
2022/05/11 04:45:41;;;;;;;;;;;;;;;19.04;45.92;99875.94;4450249;32;34011;-70
2022/05/11 04:48:10;;;;;;;;;;;;;;;19.20;45.43;99867.00;4450957;32;33443;-70
2022/05/11 04:50:43;;;;;;;;;;;;;;;19.34;45.23;99861.91;4447892;32;31872;-70
2022/05/11 04:53:12;;;;;;;;;;;;;;;19.44;45.27;99870.75;4450686;32;33054;-70
2022/05/11 04:55:40;;;;;;;;;;;;;;;19.61;44.88;99871.59;4450639;32;34477;-71
2022/05/11 04:58:16;;;;;;;;;;;;;;;19.81;44.57;99869.41;4447635;32;34169;-71
2022/05/11 05:00:44;;;;;;;;;;;;;;;20.08;45.16;99873.63;4450177;32;34261;-69
2022/05/11 05:03:14;;;;;;;;;;;;;;;20.42;43.23;99873.38;4445528;32;34452;-68
2022/05/11 05:05:43;;;;;;;;;;;;;;;20.67;42.67;99869.56;4445880;32;33193;-68
2022/05/11 05:08:18;;;;;;;;;;;;;;;20.77;41.92;99871.19;4448765;32;33758;-68
2022/05/11 05:10:52;;;;;;;;;;;;;;;20.75;42.21;99878.69;4449173;32;32733;-68
2022/05/11 05:13:25;;;;;;;;;;;;;;;20.84;42.08;99870.31;4447714;32;32572;-69
2022/05/11 05:16:01;;;;;;;;;;;;;;;20.86;41.96;99878.28;4450546;32;33075;-67
2022/05/11 05:18:29;;;;;;;;;;;;;;;20.92;42.07;99878.44;4448506;32;35324;-67
2022/05/11 05:20:58;;;;;;;;;;;;;;;20.81;42.82;99881.56;4450435;32;32581;-68
2022/05/11 05:23:27;;;;;;;;;;;;;;;20.88;43.44;99881.69;4443977;32;33908;-68
2022/05/11 05:25:55;;;;;;;;;;;;;;;21.00;43.51;99874.81;4450555;32;34238;-67
2022/05/11 05:31:11;;;;;;;;;;;;;;;21.43;41.54;99883.41;4450283;32;32286;-71
2022/05/11 05:33:40;;;;;;;;;;;;;;;21.54;41.55;99874.84;4444915;32;33077;-70
2022/05/11 05:36:09;;;;;;;;;;;;;;;21.64;41.78;99880.03;4449688;32;33331;-69
2022/05/11 05:38:38;;;;;;;;;;;;;;;21.76;41.79;99883.97;4432833;32;33814;-69
2022/05/11 05:41:07;;;;;;;;;;;;;;;21.77;41.78;99882.97;4444419;32;32345;-69
2022/05/11 05:43:36;;;;;;;;;;;;;;;21.93;41.44;99881.97;4448742;32;34289;-69
2022/05/11 05:46:04;;;;;;;;;;;;;;;22.03;40.50;99882.56;4449936;32;34275;-69
2022/05/11 05:48:33;;;;;;;;;;;;;;;22.16;40.62;99881.94;4429516;32;34068;-69
2022/05/11 05:51:09;;;;;;;;;;;;;;;22.26;40.71;99885.25;4435893;32;32141;-69
2022/05/11 05:53:39;;;;;;;;;;;;;;;22.36;40.58;99884.97;4448908;32;33129;-68
2022/05/11 05:56:09;;;;;;;;;;;;;;;22.54;40.58;99890.06;4448164;32;34081;-72
2022/05/11 05:58:38;;;;;;;;;;;;;;;22.69;39.77;99887.28;4446312;32;32859;-67
2022/05/11 06:01:09;;;;;;;;;;;;;;;22.76;39.48;99888.22;4447406;32;32389;-68
2022/05/11 06:03:44;;;;;;;;;;;;;;;22.91;39.10;99878.13;4447997;32;32468;-70
2022/05/11 06:06:14;;;;;;;;;;;;;;;22.94;38.15;99883.25;4448253;32;33294;-69
2022/05/11 06:08:44;;;;;;;;;;;;;;;23.04;38.03;99880.22;4447092;32;34375;-68
2022/05/11 06:11:12;;;;;;;;;;;;;;;23.01;37.37;99889.63;4448605;32;34627;-68
2022/05/11 06:13:41;;;;;;;;;;;;;;;23.19;37.34;99881.03;4445300;32;32954;-68
2022/05/11 06:16:13;;;;;;;;;;;;;;;23.30;36.73;99881.53;4446762;32;32939;-67
2022/05/11 06:18:44;;;;;;;;;;;;;;;23.31;36.53;99883.25;4448750;32;33065;-68
2022/05/11 06:21:14;;;;;;;;;;;;;;;23.43;37.23;99881.69;4449684;32;32491;-69
2022/05/11 06:23:43;;;;;;;;;;;;;;;23.40;37.93;99890.25;4441664;32;34104;-67
2022/05/11 06:26:13;;;;;;;;;;;;;;;23.25;38.36;99888.44;4440049;32;33158;-68
2022/05/11 06:28:42;;;;;;;;;;;;;;;23.00;38.13;99890.66;4448764;32;32851;-69
2022/05/11 06:31:21;;;;;;;;;;;;;;;23.40;37.33;99884.78;4447687;32;33391;-67
2022/05/11 06:33:53;;;;;;;;;;;;;;;23.84;37.33;99881.88;4445701;32;33194;-67
2022/05/11 06:36:26;;;;;;;;;;;;;;;24.06;37.75;99890.91;4450247;32;33242;-67
2022/05/11 06:38:54;;;;;;;;;;;;;;;24.26;37.31;99880.09;4446681;32;34486;-66
2022/05/11 06:41:27;;;;;;;;;;;;;;;24.36;35.35;99879.72;4417239;32;999689;-67
2022/05/11 06:43:56;;;;;;;;;;;;;;;24.43;34.92;99883.41;4447311;32;32983;-68
2022/05/11 06:46:25;;;;;;;;;;;;;;;24.59;35.11;99884.94;4450096;32;34068;-67
2022/05/11 06:48:54;;;;;;;;;;;;;;;24.58;35.02;99886.84;4451162;32;34337;-68
2022/05/11 06:51:22;;;;;;;;;;;;;;;24.56;35.10;99882.62;4450618;32;31634;-66
2022/05/11 06:59:30;;;;;;;;;;;;;;;24.97;34.43;99885.31;4446548;32;35133;-67
2022/05/11 07:02:03;;;;;;;;;;;;;;;24.61;35.53;99886.44;4447990;32;32208;-68
2022/05/11 07:04:37;;;;;;;;;;;;;;;25.01;35.12;99875.69;4448423;32;32534;-67
2022/05/11 07:07:06;;;;;;;;;;;;;;;25.13;34.97;99875.94;4449872;32;33346;-68
2022/05/11 07:09:35;;;;;;;;;;;;;;;25.19;36.41;99880.59;4445431;32;32790;-67
2022/05/11 07:12:21;;;;;;;;;;;;;;;25.24;35.64;99886.31;4449319;32;33149;-67
2022/05/11 07:14:52;;;;;;;;;;;;;;;25.27;33.49;99879.56;4450449;32;34517;-67
2022/05/11 07:17:33;;;;;;;;;;;;;;;25.29;33.16;99885.66;4450680;32;33901;-67
2022/05/11 07:20:08;;;;;;;;;;;;;;;24.91;34.96;99880.69;4444643;32;32647;-67
2022/05/11 07:22:39;;;;;;;;;;;;;;;24.25;34.96;99883.03;4450105;32;31850;-66
2022/05/11 07:25:16;;;;;;;;;;;;;;;24.68;35.89;99883.72;4458462;32;32488;-67
2022/05/11 07:28:00;;;;;;;;;;;;;;;24.97;34.85;99877.13;4438833;32;35933;-67
2022/05/11 07:30:45;;;;;;;;;;;;;;;25.30;33.82;99877.25;4447831;32;34496;-67
2022/05/11 07:33:28;;;;;;;;;;;;;;;25.19;34.36;99866.91;4453451;32;32136;-66
2022/05/11 07:36:06;;;;;;;;;;;;;;;24.92;34.79;99876.06;4452536;32;32987;-67
2022/05/11 07:38:44;;;;;;;;;;;;;;;25.29;33.95;99875.56;4438537;32;34512;-67
2022/05/11 07:41:24;;;;;;;;;;;;;;;25.47;33.21;99874.13;4450340;32;34105;-67
2022/05/11 07:44:01;;;;;;;;;;;;;;;24.73;32.90;99881.25;4452384;32;32347;-67
2022/05/11 07:46:41;;;;;;;;;;;;;;;25.51;32.41;99880.88;4452758;32;33749;-67
2022/05/11 07:49:24;;;;;;;;;;;;;;;25.77;30.88;99874.56;4453741;32;34289;-67
2022/05/11 07:52:00;;;;;;;;;;;;;;;25.88;31.49;99879.47;4449910;32;32841;-67
2022/05/11 07:54:44;;;;;;;;;;;;;;;25.98;30.95;99879.03;4448788;32;32945;-67
2022/05/11 08:00:01;;;;;;;;;;;;;;;25.79;31.83;99884.28;4442814;32;35330;-68
2022/05/11 08:02:31;;;;;;;;;;;;;;;25.88;30.77;99881.38;4450452;32;34131;-68
2022/05/11 08:05:03;;;;;;;;;;;;;;;25.69;32.12;99883.84;4451638;32;32383;-67
2022/05/11 08:07:39;;;;;;;;;;;;;;;26.28;31.39;99884.91;4449264;32;33221;-67
2022/05/11 08:10:12;;;;;;;;;;;;;;;26.25;31.84;99882.59;4448228;32;34442;-68
2022/05/11 08:12:41;;;;;;;;;;;;;;;26.48;31.27;99884.88;4445540;32;32722;-68
2022/05/11 08:15:12;;;;;;;;;;;;;;;25.81;31.18;99872.28;4451218;32;33416;-68
2022/05/11 08:17:43;;;;;;;;;;;;;;;25.63;30.65;99873.72;4450845;32;33060;-67
2022/05/11 08:20:38;;;;;;;;;;;;;;;25.40;30.88;99876.84;4449983;32;33096;-68
2022/05/11 08:23:08;;;;;;;;;;;;;;;25.93;29.91;99865.09;4434520;32;33075;-68
2022/05/11 08:25:38;;;;;;;;;;;;;;;26.04;29.95;99867.22;4435823;32;33043;-68
2022/05/11 08:28:12;;;;;;;;;;;;;;;25.98;31.03;99873.56;4447826;32;34052;-67
2022/05/11 08:33:29;;;;;;;;;;;;;;;26.41;27.79;99865.66;4451275;32;32784;-68
2022/05/11 08:36:22;;;;;;;;;;;;;;;25.33;30.41;99870.53;4450817;32;33446;-67
2022/05/11 08:38:55;;;;;;;;;;;;;;;26.27;28.66;99857.69;4449771;32;32928;-68
2022/05/11 08:41:45;;;;;;;;;;;;;;;26.78;28.64;99870.66;4447046;32;34194;-67
2022/05/11 08:44:22;;;;;;;;;;;;;;;26.72;28.91;99869.63;4446807;32;32503;-67
2022/05/11 08:46:51;;;;;;;;;;;;;;;26.39;30.66;99864.22;4448715;32;32131;-67
2022/05/11 08:49:21;;;;;;;;;;;;;;;25.83;29.61;99872.91;4449804;32;33871;-68
2022/05/11 08:52:00;;;;;;;;;;;;;;;26.43;28.06;99869.03;4449509;32;34573;-68
2022/05/11 08:54:34;;;;;;;;;;;;;;;26.99;27.51;99867.59;4450227;32;34583;-67
2022/05/11 08:57:14;;;;;;;;;;;;;;;26.95;27.61;99869.09;4446812;32;33638;-67
2022/05/11 08:59:43;;;;;;;;;;;;;;;26.66;29.01;99865.00;4450157;32;34656;-68
2022/05/11 09:02:14;;;;;;;;;;;;;;;26.94;26.60;99861.94;4447966;32;33410;-67
2022/05/11 09:04:47;;;;;;;;;;;;;;;26.95;27.90;99867.19;4447541;32;32598;-67
2022/05/11 09:07:15;;;;;;;;;;;;;;;26.92;27.37;99870.38;4446604;32;34184;-67
2022/05/11 09:09:44;;;;;;;;;;;;;;;27.12;26.90;99861.19;4449895;32;33928;-68
2022/05/11 09:12:13;;;;;;;;;;;;;;;27.61;26.03;99868.72;4449832;32;34419;-67
2022/05/11 09:14:49;;;;;;;;;;;;;;;27.74;25.48;99861.44;4451118;32;34158;-67
2022/05/11 09:17:20;;;;;;;;;;;;;;;27.76;26.14;99862.88;4448287;32;34129;-68
2022/05/11 09:19:59;;;;;;;;;;;;;;;27.63;26.02;99861.09;4445710;32;32861;-68
2022/05/11 09:22:27;;;;;;;;;;;;;;;27.85;26.19;99863.50;4438846;32;35178;-68
2022/05/11 09:24:59;;;;;;;;;;;;;;;27.57;25.56;99872.13;4448324;32;35211;-67
2022/05/11 09:27:32;;;;;;;;;;;;;;;28.12;24.90;99858.56;4445541;32;33484;-67
2022/05/11 09:30:07;;;;;;;;;;;;;;;28.00;26.02;99857.66;4446097;32;34264;-67
2022/05/11 09:32:37;;;;;;;;;;;;;;;28.39;24.88;99858.31;4444554;32;33043;-67
2022/05/11 09:35:15;;;;;;;;;;;;;;;27.56;25.11;99864.97;4447500;32;32971;-67
2022/05/11 09:37:44;;;;;;;;;;;;;;;28.23;25.44;99862.50;4445734;32;32290;-66
2022/05/11 09:40:20;;;;;;;;;;;;;;;27.46;26.97;99859.13;4447688;32;32944;-66
2022/05/11 09:42:55;;;;;;;;;;;;;;;27.80;25.71;99860.56;4446413;32;34820;-67
2022/05/11 09:45:34;;;;;;;;;;;;;;;28.63;24.55;99859.34;4449197;32;33109;-67
2022/05/11 09:48:03;;;;;;;;;;;;;;;28.48;23.73;99862.50;4445916;32;32286;-66
2022/05/11 09:50:32;;;;;;;;;;;;;;;28.70;24.05;99851.84;4439209;32;32972;-67
2022/05/11 09:53:08;;;;;;;;;;;;;;;28.68;25.12;99857.59;4443815;32;34939;-66
2022/05/11 09:55:37;;;;;;;;;;;;;;;28.55;25.00;99853.06;4446080;32;33125;-67
2022/05/11 09:58:06;;;;;;;;;;;;;;;28.90;25.17;99844.19;4448816;32;33636;-67
2022/05/11 10:00:39;;;;;;;;;;;;;;;28.13;26.44;99860.28;4444872;32;32819;-67
2022/05/11 10:03:13;;;;;;;;;;;;;;;28.65;25.84;99847.03;4447754;32;34269;-67
2022/05/11 10:05:45;;;;;;;;;;;;;;;29.14;26.27;99847.06;4444384;32;32830;-67
2022/05/11 10:08:14;;;;;;;;;;;;;;;29.44;25.39;99849.81;4440220;32;31936;-67
2022/05/11 10:10:46;;;;;;;;;;;;;;;28.79;26.36;99854.03;4448765;32;34371;-66
2022/05/11 10:13:24;;;;;;;;;;;;;;;29.54;24.89;99854.75;4433468;32;35803;-67
2022/05/11 10:21:52;;;;;;;;;;;;;;;29.60;22.17;99848.25;4446187;32;35313;-67
2022/05/11 10:24:45;;;;;;;;;;;;;;;29.61;21.91;99839.78;4441522;32;32744;-68
2022/05/11 10:27:19;;;;;;;;;;;;;;;29.51;22.45;99839.50;4449911;32;34681;-67
2022/05/11 10:30:08;;;;;;;;;;;;;;;29.49;23.20;99848.00;4449068;32;32292;-69
2022/05/11 10:32:40;;;;;;;;;;;;;;;29.55;23.50;99839.88;4449957;32;32999;-69
2022/05/11 10:35:19;;;;;;;;;;;;;;;29.97;22.73;99840.66;4449403;32;34252;-67
2022/05/11 10:38:05;;;;;;;;;;;;;;;30.11;24.07;99838.50;4454568;32;34377;-68
2022/05/11 10:40:52;;;;;;;;;;;;;;;29.88;23.00;99837.41;4449717;32;32396;-68
2022/05/11 10:43:22;;;;;;;;;;;;;;;30.13;23.09;99830.84;4450472;32;33197;-67
2022/05/11 10:46:14;;;;;;;;;;;;;;;29.46;23.48;99825.59;4453876;32;34277;-68
2022/05/11 10:49:02;;;;;;;;;;;;;;;29.62;22.94;99824.91;4450363;32;34156;-68
2022/05/11 10:51:48;;;;;;;;;;;;;;;29.77;22.32;99824.47;4442267;32;32888;-69
2022/05/11 10:54:45;;;;;;;;;;;;;;;30.08;21.32;99831.56;4450116;32;34008;-68
2022/05/11 10:57:19;;;;;;;;;;;;;;;30.21;21.00;99825.00;4452350;32;33429;-69
2022/05/11 10:59:47;;;;;;;;;;;;;;;30.62;20.12;99821.16;4441910;32;33422;-70
2022/05/11 11:02:27;;;;;;;;;;;;;;;30.85;20.46;99824.97;4450512;32;33181;-71
2022/05/11 11:04:55;;;;;;;;;;;;;;;30.63;20.97;99817.34;4452564;32;34839;-70
2022/05/11 11:07:36;;;;;;;;;;;;;;;30.80;21.16;99814.66;4451513;32;33042;-68
2022/05/11 11:10:08;;;;;;;;;;;;;;;30.11;21.48;99816.41;4449391;32;34043;-69
2022/05/11 11:12:55;;;;;;;;;;;;;;;30.31;21.59;99813.34;4447482;32;32124;-69
2022/05/11 11:15:26;;;;;;;;;;;;;;;30.34;21.09;99818.37;4452401;32;34092;-68
2022/05/11 11:17:54;;;;;;;;;;;;;;;30.08;21.91;99816.91;4448268;32;33072;-69
2022/05/11 11:20:22;;;;;;;;;;;;;;;29.99;22.11;99815.63;4448819;32;32896;-68
2022/05/11 11:22:59;;;;;;;;;;;;;;;29.61;22.38;99809.47;4443189;32;33022;-69
2022/05/11 11:25:29;;;;;;;;;;;;;;;29.63;22.14;99811.97;4444067;32;35142;-71
2022/05/11 11:28:11;;;;;;;;;;;;;;;29.53;22.46;99806.16;4419130;32;33181;-70
2022/05/11 11:30:40;;;;;;;;;;;;;;;29.42;22.07;99800.41;4447372;32;34070;-70
2022/05/11 11:33:10;;;;;;;;;;;;;;;29.70;22.51;99804.44;4450622;32;32558;-69
2022/05/11 11:35:55;;;;;;;;;;;;;;;29.59;22.43;99800.53;4453795;32;33975;-70
2022/05/11 11:38:24;;;;;;;;;;;;;;;29.34;21.94;99802.66;4452779;32;34491;-69
2022/05/11 11:41:07;;;;;;;;;;;;;;;29.77;22.11;99796.06;4448111;32;35189;-67
2022/05/11 11:43:56;;;;;;;;;;;;;;;29.84;21.49;99791.25;4446390;32;32233;-67
2022/05/11 11:46:27;;;;;;;;;;;;;;;29.56;22.51;99780.87;4448071;32;35017;-67
2022/05/11 11:49:09;;;;;;;;;;;;;;;30.02;22.39;99791.12;4446716;32;35205;-67
2022/05/11 11:52:03;;;;;;;;;;;;;;;29.51;21.74;99778.00;4445255;32;33906;-67
2022/05/11 11:54:38;;;;;;;;;;;;;;;29.85;21.01;99773.59;4443434;32;34392;-68
2022/05/11 11:57:12;;;;;;;;;;;;;;;29.47;22.46;99777.63;4441661;32;33794;-68
2022/05/11 11:59:48;;;;;;;;;;;;;;;29.33;22.36;99771.50;4444975;32;34490;-68
2022/05/11 12:02:36;;;;;;;;;;;;;;;29.38;22.69;99770.81;4443673;32;33689;-68
2022/05/11 12:05:24;;;;;;;;;;;;;;;29.68;22.09;99765.22;4445165;32;33211;-67
2022/05/11 12:16:27;;;;;;;;;;;;;;;30.25;22.33;99753.56;4440630;32;33358;-67
2022/05/11 12:19:08;;;;;;;;;;;;;;;29.99;22.97;99754.91;4443747;32;34151;-69
2022/05/11 12:21:37;;;;;;;;;;;;;;;29.87;22.15;99752.16;4443711;32;33045;-68
2022/05/11 12:24:06;;;;;;;;;;;;;;;29.79;21.64;99760.78;4446699;32;34197;-68
2022/05/11 12:26:35;;;;;;;;;;;;;;;29.91;21.59;99753.34;4444280;32;33443;-67
2022/05/11 12:31:57;;;;;;;;;;;;;;;29.27;22.89;99747.63;4444814;32;33102;-68
2022/05/11 12:34:27;;;;;;;;;;;;;;;29.17;23.45;99745.47;4442443;32;32445;-68
2022/05/11 12:36:54;;;;;;;;;;;;;;;28.97;23.44;99737.47;4449175;32;33978;-67
2022/05/11 12:39:29;;;;;;;;;;;;;;;29.11;23.04;99740.88;4444634;32;34783;-68
2022/05/11 12:41:57;;;;;;;;;;;;;;;29.56;22.79;99739.50;4444313;32;34109;-68
2022/05/11 12:44:26;;;;;;;;;;;;;;;29.64;23.32;99729.00;4446733;32;33507;-68
2022/05/11 12:47:01;;;;;;;;;;;;;;;29.99;22.06;99735.59;4439795;32;34447;-68
2022/05/11 12:49:29;;;;;;;;;;;;;;;29.85;22.25;99733.06;4441878;32;33846;-67
2022/05/11 12:52:00;;;;;;;;;;;;;;;29.30;23.13;99727.88;4433556;32;33117;-68
2022/05/11 12:54:29;;;;;;;;;;;;;;;29.55;23.19;99726.81;4448097;32;34153;-68
2022/05/11 12:57:15;;;;;;;;;;;;;;;29.84;22.17;99725.03;4445798;32;32123;-68
2022/05/11 12:59:54;;;;;;;;;;;;;;;29.80;21.84;99721.09;4448446;32;34233;-67
2022/05/11 13:02:26;;;;;;;;;;;;;;;29.11;23.72;99718.00;4456262;32;32360;-68
2022/05/11 13:04:56;;;;;;;;;;;;;;;29.43;23.65;99718.53;4444834;32;33607;-67
2022/05/11 13:07:26;;;;;;;;;;;;;;;29.60;23.32;99715.88;4446657;32;34287;-67
2022/05/11 13:09:56;;;;;;;;;;;;;;;29.42;23.60;99711.34;4445776;32;33205;-68
2022/05/11 13:12:23;;;;;;;;;;;;;;;29.33;22.82;99713.59;4443514;32;32735;-68
2022/05/11 13:14:52;;;;;;;;;;;;;;;29.20;23.89;99708.31;4442662;32;34057;-68
2022/05/11 13:17:40;;;;;;;;;;;;;;;29.34;22.11;99706.16;4445459;32;33524;-69
2022/05/11 13:20:20;;;;;;;;;;;;;;;29.81;21.64;99701.53;4450083;32;32674;-68
2022/05/11 13:22:52;;;;;;;;;;;;;;;29.76;23.16;99703.31;4446930;32;34650;-68
2022/05/11 13:25:38;;;;;;;;;;;;;;;29.63;24.61;99697.00;4426843;32;33116;-68
2022/05/11 13:28:11;;;;;;;;;;;;;;;29.58;24.01;99693.25;4447766;32;33500;-68
2022/05/11 13:30:44;;;;;;;;;;;;;;;28.93;24.96;99685.84;4440287;32;34310;-68
2022/05/11 13:33:44;;;;;;;;;;;;;;;28.65;26.15;99692.00;4442190;32;33565;-68
2022/05/11 13:36:24;;;;;;;;;;;;;;;29.30;24.86;99691.19;4421823;32;34280;-68
2022/05/11 13:39:01;;;;;;;;;;;;;;;29.61;25.44;99684.53;4446270;32;33363;-67
2022/05/11 13:41:31;;;;;;;;;;;;;;;30.11;24.58;99679.28;4443632;32;32361;-67
2022/05/11 13:44:01;;;;;;;;;;;;;;;29.89;25.01;99683.78;4444176;32;33720;-67
2022/05/11 13:46:32;;;;;;;;;;;;;;;29.71;23.49;99674.56;4442514;32;34250;-67
2022/05/11 13:49:23;;;;;;;;;;;;;;;29.88;24.23;99676.56;4444023;32;31339;-68
2022/05/11 13:51:51;;;;;;;;;;;;;;;30.16;23.38;99670.25;4447762;32;33799;-68